createdAt,value
2018-02-15T00:00:54.431Z,1.60
2018-02-15T00:03:21.486Z,1.70
2018-02-15T00:05:47.572Z,1.90
2018-02-15T00:08:13.614Z,1.80
2018-02-15T00:10:40.860Z,1.90
2018-02-15T00:13:07.081Z,1.80
2018-02-15T00:15:34.132Z,1.90
2018-02-15T00:18:00.187Z,1.70
2018-02-15T00:20:26.239Z,1.80
2018-02-15T00:22:52.220Z,1.80
2018-02-15T00:25:18.188Z,1.80
2018-02-15T00:27:44.307Z,1.80
2018-02-15T00:30:11.547Z,1.90
2018-02-15T00:32:37.633Z,1.90
2018-02-15T00:35:03.875Z,1.90
2018-02-15T00:37:30.046Z,1.90
2018-02-15T00:39:56.086Z,1.90
2018-02-15T00:42:22.126Z,1.90
2018-02-15T00:44:48.161Z,1.80
2018-02-15T00:47:14.180Z,1.90
2018-02-15T00:49:40.188Z,1.90
2018-02-15T00:52:06.228Z,1.90
2018-02-15T00:54:32.281Z,1.90
2018-02-15T00:56:58.284Z,1.90
2018-02-15T00:59:24.405Z,1.90
2018-02-15T01:01:50.411Z,1.90
2018-02-15T01:04:16.419Z,1.90
2018-02-15T01:06:42.564Z,1.90
2018-02-15T01:09:08.632Z,1.90
2018-02-15T01:11:34.619Z,1.90
2018-02-15T01:14:00.717Z,1.90
2018-02-15T01:16:26.797Z,1.90
2018-02-15T01:18:53.837Z,1.90
2018-02-15T01:21:20.567Z,1.80
2018-02-15T01:23:46.582Z,1.90
2018-02-15T01:26:14.370Z,1.80
2018-02-15T01:28:40.523Z,1.80
2018-02-15T01:31:06.690Z,1.80
2018-02-15T01:33:33.431Z,1.90
2018-02-15T01:35:59.489Z,1.90
2018-02-15T01:38:25.494Z,1.90
2018-02-15T01:40:51.718Z,1.90
2018-02-15T01:43:18.767Z,1.90
2018-02-15T01:45:44.804Z,1.90
2018-02-15T01:48:11.061Z,1.90
2018-02-15T01:50:37.360Z,2.00
2018-02-15T01:53:03.474Z,2.00
2018-02-15T01:55:30.979Z,2.00
2018-02-15T01:57:57.222Z,1.90
2018-02-15T02:00:23.304Z,2.00
2018-02-15T02:02:49.377Z,2.10
2018-02-15T02:05:15.431Z,2.00
2018-02-15T02:07:41.524Z,1.90
2018-02-15T02:10:07.512Z,1.90
2018-02-15T02:12:33.611Z,1.70
2018-02-15T02:14:59.598Z,1.90
2018-02-15T02:17:25.827Z,1.90
2018-02-15T02:19:51.849Z,1.90
2018-02-15T02:22:17.836Z,1.90
2018-02-15T02:24:43.856Z,1.80
2018-02-15T02:27:09.916Z,1.70
2018-02-15T02:29:35.988Z,1.90
2018-02-15T02:32:02.748Z,2.00
2018-02-15T02:34:28.793Z,1.90
2018-02-15T02:36:55.061Z,1.90
2018-02-15T02:39:21.094Z,1.80
2018-02-15T02:41:47.194Z,1.90
2018-02-15T02:44:13.242Z,1.90
2018-02-15T02:46:39.779Z,2.00
2018-02-15T02:49:05.901Z,2.00
2018-02-15T02:51:31.894Z,2.10
2018-02-15T02:53:57.895Z,2.00
2018-02-15T02:56:23.976Z,2.00
2018-02-15T02:58:50.973Z,2.10
2018-02-15T03:01:17.003Z,2.00
2018-02-15T03:03:42.995Z,1.90
2018-02-15T03:06:09.018Z,1.90
2018-02-15T03:08:35.024Z,2.00
2018-02-15T03:11:01.031Z,2.00
2018-02-15T03:13:27.006Z,2.00
2018-02-15T03:15:53.278Z,1.90
2018-02-15T03:18:19.652Z,2.00
2018-02-15T03:20:45.670Z,1.90
2018-02-15T03:23:11.697Z,2.00
2018-02-15T03:25:37.704Z,2.00
2018-02-15T03:28:04.452Z,2.00
2018-02-15T03:30:30.499Z,2.00
2018-02-15T03:32:56.734Z,2.00
2018-02-15T03:35:22.710Z,2.00
2018-02-15T03:37:48.780Z,2.10
2018-02-15T03:40:14.761Z,2.00
2018-02-15T03:42:40.812Z,1.90
2018-02-15T03:45:07.794Z,2.00
2018-02-15T03:47:33.787Z,2.00
2018-02-15T03:49:59.762Z,1.90
2018-02-15T03:52:25.771Z,2.10
2018-02-15T03:54:51.808Z,2.10
2018-02-15T03:57:17.830Z,2.10
2018-02-15T03:59:43.839Z,2.10
2018-02-15T04:02:09.831Z,2.10
2018-02-15T04:04:36.560Z,2.10
2018-02-15T04:07:02.569Z,2.10
2018-02-15T04:09:28.573Z,2.10
2018-02-15T04:11:54.632Z,2.10
2018-02-15T04:14:20.850Z,2.20
2018-02-15T04:16:46.848Z,2.10
2018-02-15T04:19:12.944Z,2.20
2018-02-15T04:21:39.015Z,2.20
2018-02-15T04:24:05.026Z,2.00
2018-02-15T04:26:31.043Z,2.20
2018-02-15T04:28:57.068Z,2.20
2018-02-15T04:31:23.085Z,2.20
2018-02-15T04:33:49.112Z,2.20
2018-02-15T04:36:15.131Z,2.20
2018-02-15T04:38:41.261Z,2.20
2018-02-15T04:41:07.763Z,2.10
2018-02-15T04:43:33.838Z,2.20
2018-02-15T04:45:59.863Z,2.20
2018-02-15T04:48:25.942Z,2.20
2018-02-15T04:50:54.142Z,2.20
2018-02-15T04:53:20.802Z,2.20
2018-02-15T04:55:47.702Z,2.30
2018-02-15T04:58:13.847Z,2.20
2018-02-15T05:00:39.873Z,2.30
2018-02-15T05:03:06.173Z,2.30
2018-02-15T05:05:32.244Z,2.30
2018-02-15T05:07:58.249Z,2.20
2018-02-15T05:10:24.295Z,2.30
2018-02-15T05:12:52.271Z,2.40
2018-02-15T05:15:18.454Z,2.40
2018-02-15T05:17:44.603Z,2.30
2018-02-15T05:20:10.832Z,2.20
2018-02-15T05:22:38.075Z,2.30
2018-02-15T05:25:05.072Z,2.10
2018-02-15T05:27:31.127Z,2.20
2018-02-15T05:29:57.177Z,2.30
2018-02-15T05:32:23.188Z,2.30
2018-02-15T05:34:49.270Z,2.20
2018-02-15T05:37:15.340Z,2.40
2018-02-15T05:39:41.477Z,2.40
2018-02-15T05:42:07.683Z,2.40
2018-02-15T05:44:33.720Z,2.40
2018-02-15T05:46:59.748Z,2.50
2018-02-15T05:49:25.981Z,2.60
2018-02-15T05:51:51.972Z,2.60
2018-02-15T05:54:17.981Z,2.60
2018-02-15T05:56:44.438Z,2.70
2018-02-15T05:59:10.682Z,2.60
2018-02-15T06:01:36.704Z,2.60
2018-02-15T06:04:02.848Z,2.50
2018-02-15T06:06:28.825Z,2.60
2018-02-15T06:08:54.880Z,2.50
2018-02-15T06:11:21.676Z,2.50
2018-02-15T06:13:47.987Z,2.50
2018-02-15T06:16:14.046Z,2.80
2018-02-15T06:18:40.104Z,2.60
2018-02-15T06:21:06.318Z,2.60
2018-02-15T06:23:32.878Z,2.50
2018-02-15T06:25:59.130Z,2.40
2018-02-15T06:28:25.173Z,2.40
2018-02-15T06:30:51.617Z,2.40
2018-02-15T06:33:17.704Z,2.40
2018-02-15T06:35:43.732Z,2.40
2018-02-15T06:38:09.786Z,2.40
2018-02-15T06:40:35.789Z,2.40
2018-02-15T06:43:02.053Z,2.30
2018-02-15T06:45:28.122Z,2.50
2018-02-15T06:47:54.424Z,2.50
2018-02-15T06:50:20.498Z,2.50
2018-02-15T06:52:46.496Z,2.60
2018-02-15T06:55:15.792Z,2.50
2018-02-15T06:57:42.026Z,2.50
2018-02-15T07:00:08.076Z,2.50
2018-02-15T07:02:34.492Z,2.60
2018-02-15T07:05:00.555Z,2.50
2018-02-15T07:07:26.641Z,2.40
2018-02-15T07:09:52.815Z,2.50
2018-02-15T07:12:19.000Z,2.50
2018-02-15T07:14:45.033Z,2.50
2018-02-15T07:17:11.342Z,2.60
2018-02-15T07:19:37.576Z,2.50
2018-02-15T07:22:04.396Z,2.60
2018-02-15T07:24:30.376Z,2.50
2018-02-15T07:26:56.369Z,2.40
2018-02-15T07:29:22.495Z,2.60
2018-02-15T07:31:48.597Z,2.60
2018-02-15T07:34:14.599Z,2.60
2018-02-15T07:36:40.724Z,2.60
2018-02-15T07:39:07.044Z,2.70
2018-02-15T07:41:33.163Z,2.60
2018-02-15T07:43:59.158Z,2.60
2018-02-15T07:46:25.246Z,2.60
2018-02-15T07:48:53.143Z,2.60
2018-02-15T07:51:19.244Z,2.60
2018-02-15T07:53:47.366Z,2.60
2018-02-15T07:56:13.675Z,2.70
2018-02-15T07:58:40.690Z,2.60
2018-02-15T08:01:07.944Z,2.70
2018-02-15T08:03:34.066Z,2.70
2018-02-15T08:06:00.045Z,2.50
2018-02-15T08:08:26.021Z,2.60
2018-02-15T08:10:52.160Z,2.60
2018-02-15T08:13:18.149Z,2.60
2018-02-15T08:15:44.185Z,2.60
2018-02-15T08:18:10.209Z,2.50
2018-02-15T08:20:36.326Z,2.50
2018-02-15T08:23:03.299Z,2.50
2018-02-15T08:25:29.342Z,2.50
2018-02-15T08:27:55.370Z,2.50
2018-02-15T08:30:21.989Z,2.30
2018-02-15T08:32:48.055Z,2.20
2018-02-15T08:35:16.081Z,2.10
2018-02-15T08:37:42.208Z,2.10
2018-02-15T08:40:08.282Z,2.00
2018-02-15T08:42:34.357Z,1.90
2018-02-15T08:45:00.417Z,1.90
2018-02-15T08:47:26.467Z,1.90
2018-02-15T08:49:52.486Z,1.90
2018-02-15T08:52:19.314Z,1.90
2018-02-15T08:54:45.626Z,1.90
2018-02-15T08:57:11.675Z,1.80
2018-02-15T08:59:37.695Z,1.80
2018-02-15T09:02:04.664Z,1.80
2018-02-15T09:04:30.697Z,1.80
2018-02-15T09:06:56.737Z,1.80
2018-02-15T09:09:22.770Z,1.80
2018-02-15T09:11:49.168Z,1.80
2018-02-15T09:14:15.330Z,1.90
2018-02-15T09:16:41.385Z,2.00
2018-02-15T09:19:07.474Z,2.00
2018-02-15T09:21:34.477Z,2.00
2018-02-15T09:24:00.507Z,2.00
2018-02-15T09:26:26.523Z,2.00
2018-02-15T09:28:52.521Z,2.00
2018-02-15T09:31:18.740Z,2.00
2018-02-15T09:33:45.379Z,2.00
2018-02-15T09:36:12.235Z,2.00
2018-02-15T09:38:38.227Z,1.90
2018-02-15T09:41:04.340Z,2.00
2018-02-15T09:43:30.576Z,2.00
2018-02-15T09:45:56.631Z,2.00
2018-02-15T09:48:22.682Z,2.10
2018-02-15T09:50:48.788Z,2.10
2018-02-15T09:53:14.818Z,2.10
2018-02-15T09:55:40.819Z,2.10
2018-02-15T09:58:07.565Z,2.00
2018-02-15T10:00:34.327Z,2.00
2018-02-15T10:03:00.450Z,2.00
2018-02-15T10:05:26.766Z,2.00
2018-02-15T10:07:52.784Z,2.00
2018-02-15T10:10:19.162Z,2.00
2018-02-15T10:12:45.188Z,2.00
2018-02-15T10:15:11.194Z,1.90
2018-02-15T10:17:37.198Z,2.10
2018-02-15T10:20:04.285Z,2.10
2018-02-15T10:22:31.931Z,2.20
2018-02-15T10:24:58.191Z,2.20
2018-02-15T10:27:25.675Z,2.20
2018-02-15T10:29:51.708Z,2.10
2018-02-15T10:32:17.785Z,2.30
2018-02-15T10:34:43.890Z,2.30
2018-02-15T10:37:11.126Z,2.30
2018-02-15T10:39:37.912Z,2.30
2018-02-15T10:42:03.929Z,2.20
2018-02-15T10:44:29.946Z,2.30
2018-02-15T10:46:56.959Z,2.30
2018-02-15T10:49:23.671Z,2.20
2018-02-15T10:51:49.757Z,2.20
2018-02-15T10:54:15.826Z,2.20
2018-02-15T10:56:41.895Z,2.10
2018-02-15T10:59:07.886Z,2.20
2018-02-15T11:01:39.971Z,2.30
2018-02-15T11:04:12.372Z,2.20
2018-02-15T11:06:38.505Z,2.30
2018-02-15T11:09:04.506Z,2.30
2018-02-15T11:11:31.274Z,2.20
2018-02-15T11:13:57.826Z,2.20
2018-02-15T11:16:23.845Z,2.20
2018-02-15T11:18:50.049Z,2.20
2018-02-15T11:21:16.806Z,2.40
2018-02-15T11:23:42.856Z,2.30
2018-02-15T11:26:09.058Z,2.40
2018-02-15T11:28:35.800Z,2.40
2018-02-15T11:31:03.343Z,2.40
2018-02-15T11:33:29.459Z,2.40
2018-02-15T11:35:56.123Z,2.40
2018-02-15T11:38:22.136Z,2.40
2018-02-15T11:40:48.094Z,2.50
2018-02-15T11:43:14.815Z,2.60
2018-02-15T11:45:41.760Z,2.60
2018-02-15T11:48:08.427Z,2.60
2018-02-15T11:50:34.556Z,2.50
2018-02-15T11:53:01.250Z,2.60
2018-02-15T11:55:27.269Z,2.60
2018-02-15T11:57:53.284Z,2.50
2018-02-15T12:00:19.394Z,2.50
2018-02-15T12:02:45.442Z,2.60
2018-02-15T12:05:11.412Z,2.60
2018-02-15T12:07:37.562Z,2.60
2018-02-15T12:10:03.528Z,2.70
2018-02-15T12:12:36.367Z,2.60
2018-02-15T12:15:03.056Z,2.70
2018-02-15T12:17:29.023Z,2.70
2018-02-15T12:19:55.669Z,2.70
2018-02-15T12:22:21.613Z,2.70
2018-02-15T12:24:47.541Z,2.70
2018-02-15T12:27:13.516Z,2.80
2018-02-15T12:29:40.470Z,2.70
2018-02-15T12:32:07.220Z,2.70
2018-02-15T12:34:33.267Z,2.80
2018-02-15T12:37:00.126Z,2.70
2018-02-15T12:39:26.153Z,2.80
2018-02-15T12:41:52.142Z,2.80
2018-02-15T12:44:18.969Z,2.80
2018-02-15T12:46:45.109Z,2.90
2018-02-15T12:49:11.108Z,2.90
2018-02-15T12:51:37.298Z,2.90
2018-02-15T12:54:03.459Z,2.90
2018-02-15T12:56:29.458Z,2.90
2018-02-15T12:58:56.022Z,2.90
2018-02-15T13:01:22.757Z,2.90
2018-02-15T13:03:48.673Z,2.80
2018-02-15T13:06:14.688Z,2.90
2018-02-15T13:08:40.742Z,2.90
2018-02-15T13:11:07.407Z,2.80
2018-02-15T13:13:33.412Z,2.80
2018-02-15T13:16:11.646Z,2.70
2018-02-15T13:18:37.804Z,2.60
2018-02-15T13:21:03.795Z,2.40
2018-02-15T13:23:29.791Z,2.20
2018-02-15T13:25:55.892Z,2.50
2018-02-15T13:28:29.966Z,2.40
2018-02-15T13:30:56.943Z,2.40
2018-02-15T13:33:23.614Z,2.50
2018-02-15T13:35:49.529Z,2.40
2018-02-15T13:38:15.463Z,2.50
2018-02-15T13:40:41.812Z,2.50
2018-02-15T13:43:07.779Z,2.50
2018-02-15T13:45:33.750Z,2.50
2018-02-15T13:48:00.032Z,2.80
2018-02-15T13:50:26.717Z,2.70
2018-02-15T13:52:52.656Z,2.70
2018-02-15T13:55:18.580Z,2.60
2018-02-15T13:57:44.567Z,2.60
2018-02-15T14:00:10.688Z,2.50
2018-02-15T14:02:36.703Z,2.60
2018-02-15T14:05:02.740Z,2.60
2018-02-15T14:07:28.715Z,2.70
2018-02-15T14:09:56.411Z,2.60
2018-02-15T14:12:22.381Z,2.60
2018-02-15T14:14:49.059Z,2.60
2018-02-15T14:17:15.108Z,2.70
2018-02-15T14:19:41.034Z,2.70
2018-02-15T14:22:07.040Z,2.70
2018-02-15T14:24:33.587Z,2.70
2018-02-15T14:26:59.611Z,2.70
2018-02-15T14:29:25.582Z,2.80
2018-02-15T14:31:55.587Z,2.80
2018-02-15T14:34:23.114Z,2.90
2018-02-15T14:36:49.131Z,2.80
2018-02-15T14:39:15.114Z,2.70
2018-02-15T14:41:41.114Z,3.00
2018-02-15T14:44:07.100Z,3.00
2018-02-15T14:46:33.100Z,2.90
2018-02-15T14:48:59.142Z,2.80
2018-02-15T14:51:25.966Z,3.00
2018-02-15T14:53:51.993Z,3.10
2018-02-15T14:56:17.950Z,3.00
2018-02-15T14:58:43.879Z,3.00
2018-02-15T15:01:09.869Z,3.00
2018-02-15T15:03:35.839Z,2.90
2018-02-15T15:06:02.701Z,2.90
2018-02-15T15:08:28.698Z,2.90
2018-02-15T15:10:54.691Z,2.90
2018-02-15T15:13:20.803Z,2.90
2018-02-15T15:15:46.776Z,3.00
2018-02-15T15:18:12.841Z,2.90
2018-02-15T15:20:38.824Z,2.90
2018-02-15T15:23:05.535Z,2.90
2018-02-15T15:25:31.505Z,2.90
2018-02-15T15:27:57.490Z,2.90
2018-02-15T15:30:24.247Z,2.90
2018-02-15T15:32:50.955Z,2.90
2018-02-15T15:35:17.006Z,2.80
2018-02-15T15:37:43.155Z,2.90
2018-02-15T15:40:09.277Z,2.90
2018-02-15T15:42:36.112Z,2.90
2018-02-15T15:45:02.090Z,2.80
2018-02-15T15:47:28.087Z,2.80
2018-02-15T15:49:54.116Z,2.70
2018-02-15T15:52:20.122Z,2.80
2018-02-15T15:54:46.345Z,2.80
2018-02-15T15:57:12.506Z,2.70
2018-02-15T15:59:38.538Z,2.80
2018-02-15T16:02:04.452Z,2.80
2018-02-15T16:04:30.405Z,2.80
2018-02-15T16:06:57.147Z,2.80
2018-02-15T16:09:23.881Z,2.80
2018-02-15T16:11:49.867Z,2.80
2018-02-15T16:14:15.823Z,2.70
2018-02-15T16:16:42.551Z,2.80
2018-02-15T16:19:09.403Z,2.80
2018-02-15T16:21:36.121Z,2.80
2018-02-15T16:24:02.079Z,2.70
2018-02-15T16:26:33.926Z,2.80
2018-02-15T16:29:00.124Z,2.80
2018-02-15T16:31:26.080Z,2.90
2018-02-15T16:33:52.782Z,2.90
2018-02-15T16:36:18.741Z,2.80
2018-02-15T16:38:45.457Z,2.90
2018-02-15T16:41:12.261Z,2.90
2018-02-15T16:43:38.272Z,2.90
2018-02-15T16:46:04.274Z,3.00
2018-02-15T16:48:30.242Z,3.00
2018-02-15T16:50:56.275Z,3.00
2018-02-15T16:53:25.774Z,3.00
2018-02-15T16:55:52.437Z,3.00
2018-02-15T16:58:21.035Z,3.00
2018-02-15T17:00:47.224Z,3.00
2018-02-15T17:03:15.633Z,2.80
2018-02-15T17:05:43.102Z,2.90
2018-02-15T17:08:09.894Z,2.90
2018-02-15T17:10:35.869Z,2.90
2018-02-15T17:13:02.839Z,2.90
2018-02-15T17:15:28.961Z,2.90
2018-02-15T17:17:54.961Z,2.80
2018-02-15T17:20:21.141Z,2.70
2018-02-15T17:22:47.171Z,2.80
2018-02-15T17:25:13.175Z,2.90
2018-02-15T17:27:39.202Z,2.90
2018-02-15T17:30:06.404Z,2.90
2018-02-15T17:32:34.236Z,2.90
2018-02-15T17:35:00.206Z,3.00
2018-02-15T17:37:26.432Z,3.00
2018-02-15T17:39:52.649Z,3.00
2018-02-15T17:42:18.610Z,3.00
2018-02-15T17:44:44.944Z,3.00
2018-02-15T17:47:13.108Z,3.00
2018-02-15T17:49:39.113Z,3.10
2018-02-15T17:52:05.763Z,3.00
2018-02-15T17:54:31.731Z,3.10
2018-02-15T17:56:57.749Z,3.10
2018-02-15T17:59:24.745Z,3.10
2018-02-15T18:01:53.940Z,3.10
2018-02-15T18:04:19.926Z,3.10
2018-02-15T18:06:48.484Z,3.10
2018-02-15T18:09:14.863Z,3.00
2018-02-15T18:11:41.824Z,3.20
2018-02-15T18:14:09.465Z,3.20
2018-02-15T18:16:35.416Z,3.10
2018-02-15T18:19:01.380Z,3.10
2018-02-15T18:21:27.404Z,3.10
2018-02-15T18:23:53.582Z,3.10
2018-02-15T18:26:23.190Z,3.20
2018-02-15T18:28:49.219Z,3.30
2018-02-15T18:31:18.690Z,3.20
2018-02-15T18:33:45.405Z,3.20
2018-02-15T18:36:11.371Z,3.10
2018-02-15T18:38:37.289Z,3.20
2018-02-15T18:41:03.533Z,3.20
2018-02-15T18:43:29.424Z,3.20
2018-02-15T18:45:55.453Z,3.20
2018-02-15T18:48:21.428Z,3.20
2018-02-15T18:50:48.137Z,3.20
2018-02-15T18:53:14.135Z,3.20
2018-02-15T18:55:40.074Z,3.20
2018-02-15T18:58:06.240Z,3.20
2018-02-15T19:00:32.947Z,3.20
2018-02-15T19:02:58.894Z,3.10
2018-02-15T19:05:24.938Z,3.10
2018-02-15T19:07:50.856Z,3.10
2018-02-15T19:10:16.787Z,3.10
2018-02-15T19:12:42.710Z,3.10
2018-02-15T19:15:10.968Z,3.10
2018-02-15T19:17:36.899Z,3.20
2018-02-15T19:20:02.862Z,3.30
2018-02-15T19:22:28.851Z,3.10
2018-02-15T19:24:54.777Z,3.20
2018-02-15T19:27:21.244Z,3.20
2018-02-15T19:29:49.132Z,3.20
2018-02-15T19:32:15.123Z,3.20
2018-02-15T19:34:41.149Z,3.20
2018-02-15T19:37:08.161Z,3.30
2018-02-15T19:39:34.347Z,3.30
2018-02-15T19:42:00.715Z,3.30
2018-02-15T19:44:26.792Z,3.30
2018-02-15T19:46:55.585Z,3.30
2018-02-15T19:49:24.230Z,3.30
2018-02-15T19:51:50.542Z,3.20
2018-02-15T19:54:16.532Z,3.20
2018-02-15T19:56:46.584Z,3.20
2018-02-15T19:59:16.538Z,3.20
2018-02-15T20:01:45.565Z,3.20
2018-02-15T20:04:14.142Z,3.30
2018-02-15T20:06:40.163Z,3.20
2018-02-15T20:09:06.164Z,3.20
2018-02-15T20:11:38.672Z,3.20
2018-02-15T20:14:05.456Z,3.20
2018-02-15T20:16:32.103Z,3.30
2018-02-15T20:18:59.498Z,3.30
2018-02-15T20:21:25.452Z,3.30
2018-02-15T20:23:51.540Z,3.30
2018-02-15T20:26:24.504Z,3.30
2018-02-15T20:28:50.639Z,3.30
2018-02-15T20:31:16.625Z,3.30
2018-02-15T20:33:42.584Z,3.30
2018-02-15T20:36:08.680Z,3.30
2018-02-15T20:38:41.506Z,3.30
2018-02-15T20:41:09.196Z,3.30
2018-02-15T20:43:35.184Z,3.20
2018-02-15T20:46:01.786Z,3.30
2018-02-15T20:48:28.766Z,3.30
2018-02-15T20:51:01.070Z,3.30
2018-02-15T20:53:33.124Z,3.30
2018-02-15T20:55:59.104Z,3.30
2018-02-15T20:58:25.762Z,3.40
2018-02-15T21:00:51.764Z,3.50
2018-02-15T21:03:17.859Z,3.50
2018-02-15T21:05:43.918Z,3.60
2018-02-15T21:08:10.142Z,3.60
2018-02-15T21:10:36.115Z,3.60
2018-02-15T21:13:02.234Z,3.60
2018-02-15T21:15:29.470Z,3.50
2018-02-15T21:17:55.423Z,3.50
2018-02-15T21:20:21.415Z,3.50
2018-02-15T21:22:47.547Z,3.50
2018-02-15T21:25:13.528Z,3.40
2018-02-15T21:27:39.599Z,3.30
2018-02-15T21:30:05.836Z,3.30
2018-02-15T21:32:31.856Z,3.30
2018-02-15T21:34:57.830Z,3.40
2018-02-15T21:37:23.762Z,3.30
2018-02-15T21:39:50.533Z,3.30
2018-02-15T21:42:16.508Z,3.30
2018-02-15T21:44:42.540Z,3.40
2018-02-15T21:47:09.252Z,3.30
2018-02-15T21:49:35.252Z,3.20
2018-02-15T21:52:01.231Z,3.30
2018-02-15T21:54:28.161Z,3.30
2018-02-15T21:56:54.955Z,3.30
2018-02-15T21:59:21.975Z,3.10
2018-02-15T22:01:48.720Z,3.30
2018-02-15T22:04:14.735Z,3.30
2018-02-15T22:06:41.409Z,3.50
2018-02-15T22:09:07.422Z,3.30
2018-02-15T22:11:33.398Z,3.30
2018-02-15T22:14:00.303Z,3.30
2018-02-15T22:16:26.282Z,3.30
2018-02-15T22:18:52.436Z,3.40
2018-02-15T22:21:20.186Z,3.40
2018-02-15T22:23:46.304Z,3.50
2018-02-15T22:26:12.291Z,3.40
2018-02-15T22:28:38.226Z,3.40
2018-02-15T22:31:05.807Z,3.50
2018-02-15T22:33:31.806Z,3.40
2018-02-15T22:35:58.552Z,3.60
2018-02-15T22:38:24.566Z,3.60
2018-02-15T22:40:50.586Z,3.60
2018-02-15T22:43:18.214Z,3.60
2018-02-15T22:45:44.224Z,3.60
2018-02-15T22:48:10.222Z,3.60
2018-02-15T22:50:36.206Z,3.60
2018-02-15T22:53:02.282Z,3.60
2018-02-15T22:55:28.262Z,3.60
2018-02-15T22:57:54.232Z,3.70
2018-02-15T23:00:20.926Z,3.60
2018-02-15T23:02:46.854Z,3.50
2018-02-15T23:05:13.533Z,3.60
2018-02-15T23:07:39.606Z,3.50
2018-02-15T23:10:05.530Z,3.50
2018-02-15T23:12:32.193Z,3.50
2018-02-15T23:14:58.814Z,3.40
2018-02-15T23:17:25.493Z,3.50
2018-02-15T23:19:53.158Z,3.60
2018-02-15T23:22:19.095Z,3.50
2018-02-15T23:24:45.181Z,3.50
2018-02-15T23:27:11.124Z,3.50
2018-02-15T23:29:37.976Z,3.50
2018-02-15T23:32:03.928Z,3.50
2018-02-15T23:34:30.676Z,3.50
2018-02-15T23:36:56.613Z,3.50
2018-02-15T23:39:23.517Z,3.50
2018-02-15T23:41:50.234Z,3.50
2018-02-15T23:44:16.169Z,3.50
2018-02-15T23:46:42.142Z,3.50
2018-02-15T23:49:08.159Z,3.50
2018-02-15T23:51:34.120Z,3.50
2018-02-15T23:54:00.079Z,3.60
2018-02-15T23:56:26.051Z,3.50
2018-02-15T23:58:51.958Z,3.50
